Larkspur, CA (94939)

7:31 AM PST on February 08, 2016 (GMT -0800)
Crystal Creek | | Change Station
CLOSE
Current Station
Personal Weather Station
Location: Larkspur, CA
Elevation: 7 ft
Nearby Weather Stations

Elev 7 ft 37.94 °N, 122.54 °W | Updated 23 seconds ago

Clear
Clear
45.0 °F
Feels Like 45 °F
N
1.1
Wind Variable Wind from WNW
Gusts 2.5 mph

Today
High -- | Low -- °F
--% Chance of Precip.
Yesterday
High -- | Low -- °F
Precip. -- in
Pressure 30.25 in
Visibility 10.0 miles
Clouds Clear
Windchill 45 °F
Dew Point 43 °F
Humidity 92%
Rainfall 0.00 in
Snow Depth Not available.
7:08 AM 5:40 PM
New Moon, 0% visible
METAR KO69 081515Z AUTO 11005KT 10SM CLR 10/08 A3025 RMK AO1
Pressure 30.25 in
Visibility 10.0 miles
Clouds Clear
Windchill 45 °F
Dew Point 43 °F
Humidity 92%
Rainfall 0.00 in
Snow Depth Not available.
7:08 AM 5:40 PM
New Moon, 0% visible
METAR KO69 081515Z AUTO 11005KT 10SM CLR 10/08 A3025 RMK AO1

10-Day Weather Forecast

Almanac

Astronomy

Feb. 08, 2016 Rise Set
Actual Time
Civil Twilight
Nautical Twilight
Astronomical Twilight
Moon
Length of Visible Light
Length of Day
Tomorrow will be .
, % of the Moon is Illuminated

Today's Extremes

State Highs State Lows

Community

WunderPhotos

Upload Photos

1,891,440 photos uploaded!

WunderBlog® & News

Nearby

Air Quality

  Air Quality AQ Index Pollutant
Not available.

Snow Depth

Station Depth Elevation

Earthquake Activity

City Distance Mag. Time & Date
Minimum magnitude displayed is 2.5.

Coastal Water Temperatures

Place Temperature

Stations

Nearby Weather Stations

Station Location Temp. Windchill Dew Point Humidity Wind Precip. Elev Updated Type
                   

Watches & Warnings

There are currently no watches in effect.